AFR306 LFKB-LEBL
Flight info
| Callsign | AFR306 |
|---|---|
| Flight time | N/A |
| Altitude | 29000 |
| Route | AJO DCT NEGAT DCT BALEN/N0431F280 DCT ELVOP DCT MUREN/N0444F290 M601 VERSO |
| Aircraft | A321/M-SDE3FGHIRWY/LB1 |
Departure
| Time | 2026-05-01 14:02 |
|---|---|
| Airport | Bastia-Poretta International airport (LFKB) |
Arrival
| Time | N/A |
|---|---|
| Airport | Josep Tarradellas Barcelona-El Prat Airport (LEBL) |
| Time | Latitude | Longitude | Altitude | Speed | Heading |
|---|---|---|---|---|---|
| 2026-05-01 13:36 | 42.54736 | 9.48207 | 40 ft | 0 kts | 282° |
| 2026-05-01 13:55 | 42.54732 | 9.48228 | 40 ft | 4 kts | 282° |
| 2026-05-01 13:55 | 42.54728 | 9.48257 | 40 ft | 3 kts | 282° |
| 2026-05-01 13:56 | 42.54724 | 9.48292 | 40 ft | 4 kts | 263° |
| 2026-05-01 13:56 | 42.54731 | 9.48317 | 37 ft | 4 kts | 189° |
| 2026-05-01 13:56 | 42.54756 | 9.48314 | 37 ft | 4 kts | 159° |
| 2026-05-01 13:56 | 42.54780 | 9.48299 | 37 ft | 3 kts | 161° |
| 2026-05-01 13:57 | 42.54783 | 9.48298 | 37 ft | 0 kts | 162° |
| 2026-05-01 13:58 | 42.54775 | 9.48301 | 37 ft | 5 kts | 162° |
| 2026-05-01 13:59 | 42.54698 | 9.48334 | 40 ft | 18 kts | 162° |
| 2026-05-01 13:59 | 42.54549 | 9.48398 | 41 ft | 24 kts | 162° |
| 2026-05-01 13:59 | 42.54406 | 9.48416 | 42 ft | 19 kts | 172° |
| 2026-05-01 13:59 | 42.54284 | 9.48463 | 43 ft | 17 kts | 163° |
| 2026-05-01 14:00 | 42.54176 | 9.48517 | 43 ft | 16 kts | 145° |
| 2026-05-01 14:00 | 42.54133 | 9.48635 | 44 ft | 14 kts | 95° |
| 2026-05-01 14:00 | 42.54157 | 9.48750 | 42 ft | 13 kts | 49° |
| 2026-05-01 14:00 | 42.54236 | 9.48796 | 43 ft | 13 kts | 2° |
| 2026-05-01 14:01 | 42.54325 | 9.48766 | 42 ft | 15 kts | 343° |
| 2026-05-01 14:01 | 42.54539 | 9.48677 | 40 ft | 63 kts | 343° |
| 2026-05-01 14:01 | 42.55164 | 9.48416 | 40 ft | 122 kts | 343° |
| 2026-05-01 14:01 | 42.56109 | 9.48020 | 213 ft | 151 kts | 343° |
| 2026-05-01 14:02 | 42.57117 | 9.47627 | 846 ft | 153 kts | 344° |
| 2026-05-01 14:02 | 42.58174 | 9.47227 | 1267 ft | 166 kts | 345° |
| 2026-05-01 14:02 | 42.59364 | 9.46811 | 1545 ft | 186 kts | 353° |
| 2026-05-01 14:02 | 42.60734 | 9.47016 | 1705 ft | 215 kts | 20° |
| 2026-05-01 14:03 | 42.62193 | 9.47819 | 2091 ft | 237 kts | 22° |
| 2026-05-01 14:03 | 42.63758 | 9.48655 | 2794 ft | 244 kts | 22° |
| 2026-05-01 14:03 | 42.65352 | 9.49487 | 3650 ft | 247 kts | 22° |
| 2026-05-01 14:03 | 42.66974 | 9.50323 | 4471 ft | 251 kts | 22° |
| 2026-05-01 14:04 | 42.68613 | 9.51163 | 5320 ft | 253 kts | 22° |
| 2026-05-01 14:04 | 42.70100 | 9.52405 | 6080 ft | 255 kts | 49° |
| 2026-05-01 14:04 | 42.70816 | 9.54599 | 6837 ft | 262 kts | 83° |
| 2026-05-01 14:04 | 42.70452 | 9.57038 | 7541 ft | 273 kts | 116° |
| 2026-05-01 14:05 | 42.69085 | 9.58876 | 8264 ft | 288 kts | 149° |
| 2026-05-01 14:05 | 42.67109 | 9.59476 | 8969 ft | 301 kts | 182° |
| 2026-05-01 14:05 | 42.65135 | 9.58607 | 9651 ft | 310 kts | 214° |
| 2026-05-01 14:05 | 42.63554 | 9.56601 | 10320 ft | 314 kts | 230° |
| 2026-05-01 14:06 | 42.62078 | 9.54313 | 10635 ft | 333 kts | 230° |
| 2026-05-01 14:06 | 42.60507 | 9.51865 | 10751 ft | 355 kts | 230° |
| 2026-05-01 14:06 | 42.58839 | 9.49257 | 10907 ft | 375 kts | 230° |
| 2026-05-01 14:06 | 42.56942 | 9.46752 | 11315 ft | 385 kts | 220° |
| 2026-05-01 14:07 | 42.54788 | 9.44560 | 11918 ft | 388 kts | 214° |
| 2026-05-01 14:07 | 42.52495 | 9.42590 | 12547 ft | 392 kts | 211° |
| 2026-05-01 14:07 | 42.50127 | 9.40705 | 13118 ft | 397 kts | 210° |
| 2026-05-01 14:08 | 42.45322 | 9.36845 | 14193 ft | 406 kts | 212° |
| 2026-05-01 14:08 | 42.42915 | 9.34806 | 14718 ft | 409 kts | 213° |
| 2026-05-01 14:08 | 42.40513 | 9.32709 | 15266 ft | 413 kts | 213° |